Time;durP1;ratioP1;P1;durP2;ratioP2;P2;SDS_P1;SDS_P2;PMS_P1;PMS_P2;Temp;Humidity;BMP_temperature;BMP_pressure;BME280_temperature;BME280_humidity;BME280_pressure;Samples;Min_cycle;Max_cycle;Signal;HPM_P1;HPM_P2
2021/05/07 00:00:58;;;;;;;4.40;1.40;;;;;;;;;;5110448;28;20399;-72
2021/05/07 00:05:20;;;;;;;3.83;1.38;;;;;;;;;;5131117;27;20674;-71
2021/05/07 00:07:47;;;;;;;4.45;1.70;;;;;;;;;;5110567;28;20099;-72
2021/05/07 00:12:49;;;;;;;3.05;1.60;;;;;;;;;;5110580;27;20442;-73
2021/05/07 00:15:15;;;;;;;4.35;1.33;;;;;;;;;;5110484;28;20490;-72
2021/05/07 00:18:21;;;;;;;3.97;1.77;;;;;;;;;;5069555;27;20806;-72
2021/05/07 00:20:47;;;;;;;6.05;1.55;;;;;;;;;;5069984;28;20103;-73
2021/05/07 00:23:13;;;;;;;1.88;1.20;;;;;;;;;;5069981;28;20383;-71
2021/05/07 00:28:42;;;;;;;4.25;1.77;;;;;;;;;;5110613;27;20441;-71
2021/05/07 00:31:08;;;;;;;2.63;1.40;;;;;;;;;;5108824;28;20032;-71
2021/05/07 00:33:34;;;;;;;3.00;1.30;;;;;;;;;;5110376;28;20024;-71
2021/05/07 00:36:00;;;;;;;2.67;1.65;;;;;;;;;;5110477;28;20020;-71
2021/05/07 00:39:07;;;;;;;2.42;1.30;;;;;;;;;;5110131;27;20787;-72
2021/05/07 00:41:33;;;;;;;1.92;1.05;;;;;;;;;;5110553;28;20034;-71
2021/05/07 00:43:59;;;;;;;3.50;1.60;;;;;;;;;;5110471;28;20034;-71
2021/05/07 00:46:25;;;;;;;3.95;1.88;;;;;;;;;;5110236;28;20024;-70
2021/05/07 00:50:35;;;;;;;7.38;2.30;;;;;;;;;;5110588;27;20786;-71
2021/05/07 00:53:02;;;;;;;4.55;1.98;;;;;;;;;;5110208;28;20024;-71
2021/05/07 00:55:29;;;;;;;7.28;1.80;;;;;;;;;;5110442;28;20020;-71
2021/05/07 00:57:56;;;;;;;2.85;1.35;;;;;;;;;;5109053;28;20031;-71
2021/05/07 01:00:22;;;;;;;7.47;2.03;;;;;;;;;;5109956;28;20115;-72
2021/05/07 01:02:49;;;;;;;2.80;1.45;;;;;;;;;;5109111;28;20016;-71
2021/05/07 01:05:15;;;;;;;3.25;1.40;;;;;;;;;;5110436;28;20032;-71
2021/05/07 01:08:34;;;;;;;1.38;1.17;;;;;;;;;;5110607;27;20385;-71
2021/05/07 01:11:01;;;;;;;3.22;1.42;;;;;;;;;;5110774;28;20487;-71
2021/05/07 01:15:38;;;;;;;3.03;1.52;;;;;;;;;;5110426;27;20380;-71
2021/05/07 01:18:04;;;;;;;3.70;1.60;;;;;;;;;;5110783;28;20039;-71
2021/05/07 01:21:39;;;;;;;3.28;1.45;;;;;;;;;;5110024;27;20381;-71
2021/05/07 01:24:06;;;;;;;3.10;1.10;;;;;;;;;;5110613;28;20026;-71
2021/05/07 01:26:34;;;;;;;3.28;1.20;;;;;;;;;;5110582;28;20019;-71
2021/05/07 01:29:00;;;;;;;2.58;1.40;;;;;;;;;;5110117;28;20036;-71
2021/05/07 01:32:11;;;;;;;3.53;1.52;;;;;;;;;;5110550;27;20434;-71
2021/05/07 01:34:37;;;;;;;3.10;1.55;;;;;;;;;;5110241;28;20024;-71
2021/05/07 01:40:36;;;;;;;3.90;1.55;;;;;;;;;;5110403;27;20434;-71
2021/05/07 01:43:03;;;;;;;4.00;1.65;;;;;;;;;;5108834;28;20056;-71
2021/05/07 01:47:59;;;;;;;4.05;1.90;;;;;;;;;;5110622;27;20795;-71
2021/05/07 01:51:11;;;;;;;4.80;2.33;;;;;;;;;;5110498;27;20162;-71
2021/05/07 01:53:37;;;;;;;4.22;2.47;;;;;;;;;;5110478;28;20020;-71
2021/05/07 01:56:03;;;;;;;6.57;2.05;;;;;;;;;;5110027;28;20153;-71
2021/05/07 01:58:30;;;;;;;4.78;1.75;;;;;;;;;;5110416;28;20028;-71
2021/05/07 02:00:57;;;;;;;3.17;1.70;;;;;;;;;;5110340;28;20501;-71
2021/05/07 02:03:23;;;;;;;3.00;1.55;;;;;;;;;;5108593;28;20031;-71
2021/05/07 02:05:50;;;;;;;3.53;2.10;;;;;;;;;;5109081;28;20016;-71
2021/05/07 02:08:16;;;;;;;4.20;1.90;;;;;;;;;;5110330;28;20032;-71
2021/05/07 02:10:43;;;;;;;2.70;1.70;;;;;;;;;;5108379;28;20419;-71
2021/05/07 02:13:10;;;;;;;6.75;1.83;;;;;;;;;;5110096;28;20047;-71
2021/05/07 02:15:37;;;;;;;2.85;1.70;;;;;;;;;;5108764;28;20028;-71
2021/05/07 02:18:04;;;;;;;4.03;1.83;;;;;;;;;;5109587;28;20028;-71
2021/05/07 02:20:30;;;;;;;4.95;2.15;;;;;;;;;;5109943;28;20034;-71
2021/05/07 02:22:57;;;;;;;3.05;1.48;;;;;;;;;;5109875;28;20417;-71
2021/05/07 02:25:24;;;;;;;6.97;1.85;;;;;;;;;;5109602;28;20054;-71
2021/05/07 02:28:30;;;;;;;4.05;1.70;;;;;;;;;;5110628;27;20618;-71
2021/05/07 02:31:56;;;;;;;3.28;1.45;;;;;;;;;;5110125;27;20741;-71
2021/05/07 02:38:27;;;;;;;3.78;1.63;;;;;;;;;;5110193;27;20389;-71
2021/05/07 02:41:20;;;;;;;4.38;2.17;;;;;;;;;;5110525;27;20377;-71
2021/05/07 02:44:00;;;;;;;4.45;2.25;;;;;;;;;;5110551;27;20445;-71
2021/05/07 02:46:26;;;;;;;5.60;2.30;;;;;;;;;;5110265;28;20035;-70
2021/05/07 02:48:52;;;;;;;4.05;1.85;;;;;;;;;;5110508;28;20024;-71
2021/05/07 02:53:46;;;;;;;4.20;1.83;;;;;;;;;;5110092;27;20448;-71
2021/05/07 02:56:13;;;;;;;4.22;1.55;;;;;;;;;;5110514;28;20036;-71
2021/05/07 02:58:39;;;;;;;4.75;2.33;;;;;;;;;;5110020;28;20032;-71
2021/05/07 03:03:12;;;;;;;3.83;1.92;;;;;;;;;;5110460;27;20365;-71
2021/05/07 03:09:15;;;;;;;4.82;2.00;;;;;;;;;;5110601;27;20430;-72
2021/05/07 03:12:56;;;;;;;4.10;1.85;;;;;;;;;;5110051;27;20791;-71
2021/05/07 03:15:34;;;;;;;11.95;2.58;;;;;;;;;;5110594;27;20374;-71
2021/05/07 03:20:09;;;;;;;5.03;1.83;;;;;;;;;;5110025;27;20385;-71
2021/05/07 03:22:35;;;;;;;6.28;2.10;;;;;;;;;;5110544;28;20020;-72
2021/05/07 03:28:56;;;;;;;6.78;2.83;;;;;;;;;;5110234;27;20381;-71
2021/05/07 03:35:49;;;;;;;5.15;2.00;;;;;;;;;;5110089;27;20410;-71
2021/05/07 03:40:33;;;;;;;3.83;2.00;;;;;;;;;;5110460;27;20993;-72
2021/05/07 03:42:59;;;;;;;3.88;1.90;;;;;;;;;;5108749;28;20027;-71
2021/05/07 03:47:30;;;;;;;5.07;2.35;;;;;;;;;;5110744;27;20158;-71
2021/05/07 03:49:56;;;;;;;4.53;1.92;;;;;;;;;;5108813;28;20036;-71
2021/05/07 03:52:23;;;;;;;4.55;2.00;;;;;;;;;;5110401;28;20051;-71
2021/05/07 03:54:49;;;;;;;2.28;1.40;;;;;;;;;;5110353;28;20060;-72
2021/05/07 03:57:27;;;;;;;3.10;1.50;;;;;;;;;;5110478;27;20442;-71
2021/05/07 04:00:12;;;;;;;3.92;2.10;;;;;;;;;;5110479;27;20385;-71
2021/05/07 04:02:38;;;;;;;7.80;2.60;;;;;;;;;;5110457;28;20051;-71
2021/05/07 04:07:03;;;;;;;7.13;2.38;;;;;;;;;;5110612;27;20892;-71
2021/05/07 04:09:57;;;;;;;5.47;1.85;;;;;;;;;;5110197;28;20032;-72
2021/05/07 04:13:47;;;;;;;3.67;2.08;;;;;;;;;;5111052;27;20393;-71
2021/05/07 04:16:13;;;;;;;4.72;2.38;;;;;;;;;;5110028;28;20031;-71
2021/05/07 04:18:40;;;;;;;4.80;2.30;;;;;;;;;;5109109;28;20477;-71
2021/05/07 04:21:06;;;;;;;5.95;2.13;;;;;;;;;;5109115;28;20084;-71
2021/05/07 04:23:32;;;;;;;5.55;1.95;;;;;;;;;;5109899;28;20099;-71
2021/05/07 04:26:00;;;;;;;4.20;2.10;;;;;;;;;;5110381;28;20479;-71
2021/05/07 04:28:26;;;;;;;4.43;2.10;;;;;;;;;;5110471;28;20460;-71
2021/05/07 04:35:09;;;;;;;6.53;2.40;;;;;;;;;;5110500;27;20431;-71
2021/05/07 04:37:35;;;;;;;6.70;2.80;;;;;;;;;;5108684;28;20501;-71
2021/05/07 04:40:29;;;;;;;5.32;2.67;;;;;;;;;;5069787;28;20493;-71
2021/05/07 04:43:37;;;;;;;8.05;2.58;;;;;;;;;;5110524;27;20385;-71
2021/05/07 04:46:03;;;;;;;4.63;2.30;;;;;;;;;;5110176;28;20445;-72
2021/05/07 04:48:29;;;;;;;6.53;2.30;;;;;;;;;;5109282;28;20114;-71
2021/05/07 04:55:32;;;;;;;5.95;2.63;;;;;;;;;;5110439;27;20434;-71
2021/05/07 04:57:58;;;;;;;8.60;2.03;;;;;;;;;;5110468;28;20077;-72
2021/05/07 05:00:25;;;;;;;5.22;2.70;;;;;;;;;;5109811;28;20035;-71
2021/05/07 05:04:28;;;;;;;6.60;2.47;;;;;;;;;;5172481;27;20110;-72
2021/05/07 05:08:05;;;;;;;4.68;2.25;;;;;;;;;;5152007;27;20404;-75
2021/05/07 05:10:32;;;;;;;5.28;2.47;;;;;;;;;;5130433;28;20062;-75
2021/05/07 05:14:44;;;;;;;7.22;2.70;;;;;;;;;;5066326;28;20417;-72
2021/05/07 05:17:10;;;;;;;4.47;2.60;;;;;;;;;;5065222;28;20313;-74
2021/05/07 05:19:55;;;;;;;5.93;2.50;;;;;;;;;;5107277;27;20385;-74
2021/05/07 05:22:21;;;;;;;7.20;2.92;;;;;;;;;;5110049;28;20023;-73
2021/05/07 05:24:47;;;;;;;6.80;2.40;;;;;;;;;;5110460;28;20020;-74
2021/05/07 05:27:13;;;;;;;4.63;2.72;;;;;;;;;;5107210;28;20471;-73
2021/05/07 05:29:39;;;;;;;5.55;2.40;;;;;;;;;;5101397;28;20466;-73
2021/05/07 05:33:04;;;;;;;5.05;2.63;;;;;;;;;;5109537;27;20161;-75
2021/05/07 05:35:31;;;;;;;10.85;3.17;;;;;;;;;;5104580;28;20024;-73
2021/05/07 05:39:01;;;;;;;7.72;3.00;;;;;;;;;;5108845;27;20392;-75
2021/05/07 05:41:27;;;;;;;4.50;2.50;;;;;;;;;;5108502;28;20031;-73
2021/05/07 05:43:53;;;;;;;8.90;3.78;;;;;;;;;;5104299;28;20020;-75
2021/05/07 05:46:20;;;;;;;11.10;6.30;;;;;;;;;;5109272;28;20028;-76
2021/05/07 05:48:46;;;;;;;9.48;3.47;;;;;;;;;;5104502;28;20383;-75
2021/05/07 05:52:15;;;;;;;7.15;3.30;;;;;;;;;;5108735;27;20454;-71
2021/05/07 05:56:51;;;;;;;7.45;3.53;;;;;;;;;;5067750;28;20384;-72
2021/05/07 05:59:17;;;;;;;5.75;2.70;;;;;;;;;;5068317;28;20033;-73
2021/05/07 06:01:44;;;;;;;8.48;2.33;;;;;;;;;;5063708;28;20017;-72
2021/05/07 06:04:58;;;;;;;5.75;2.20;;;;;;;;;;5116511;27;20184;-72
2021/05/07 06:07:24;;;;;;;5.90;2.00;;;;;;;;;;5108589;28;20049;-72
2021/05/07 06:09:50;;;;;;;5.28;2.25;;;;;;;;;;5108421;28;20099;-73
2021/05/07 06:15:20;;;;;;;9.35;2.72;;;;;;;;;;5107685;27;21101;-73
2021/05/07 06:19:14;;;;;;;5.32;2.58;;;;;;;;;;5102150;27;20389;-73
2021/05/07 06:22:57;;;;;;;9.05;2.83;;;;;;;;;;5087914;28;20456;-74
2021/05/07 06:25:26;;;;;;;7.32;2.97;;;;;;;;;;5087832;28;20066;-72
2021/05/07 06:29:08;;;;;;;5.38;2.47;;;;;;;;;;5108413;27;20458;-73
2021/05/07 06:31:34;;;;;;;6.38;2.45;;;;;;;;;;5096028;28;20458;-68
2021/05/07 06:35:55;;;;;;;4.75;1.95;;;;;;;;;;5107179;27;20385;-69
2021/05/07 06:38:21;;;;;;;5.90;2.20;;;;;;;;;;5108039;28;20123;-70
2021/05/07 06:40:47;;;;;;;3.88;1.52;;;;;;;;;;5105768;28;20406;-71
2021/05/07 06:46:10;;;;;;;7.82;2.30;;;;;;;;;;5109084;27;20376;-68
2021/05/07 06:48:36;;;;;;;4.80;2.15;;;;;;;;;;5108421;28;20514;-69
2021/05/07 06:51:03;;;;;;;4.35;1.77;;;;;;;;;;5107761;28;20020;-70
2021/05/07 06:53:29;;;;;;;6.10;2.63;;;;;;;;;;5111530;28;20110;-69
2021/05/07 06:55:55;;;;;;;7.07;2.15;;;;;;;;;;5108013;28;20095;-71
2021/05/07 06:58:23;;;;;;;5.68;2.47;;;;;;;;;;5106743;28;20032;-70
2021/05/07 07:00:49;;;;;;;6.15;2.47;;;;;;;;;;5106504;28;20384;-72
2021/05/07 07:03:17;;;;;;;8.40;3.03;;;;;;;;;;5107546;28;20023;-71
2021/05/07 07:05:43;;;;;;;7.88;3.10;;;;;;;;;;5106802;28;20028;-73
2021/05/07 07:09:06;;;;;;;7.90;2.40;;;;;;;;;;5107984;27;20377;-70
2021/05/07 07:11:32;;;;;;;4.45;2.05;;;;;;;;;;5094996;28;20031;-69
2021/05/07 07:14:20;;;;;;;4.18;2.15;;;;;;;;;;5096745;27;20215;-70
2021/05/07 07:18:18;;;;;;;5.47;1.63;;;;;;;;;;5103255;27;20453;-69
2021/05/07 07:20:45;;;;;;;10.07;2.40;;;;;;;;;;5105374;28;20031;-71
2021/05/07 07:23:11;;;;;;;4.20;2.10;;;;;;;;;;5108893;28;20031;-69
2021/05/07 07:25:37;;;;;;;4.53;2.38;;;;;;;;;;5108728;28;20376;-71
2021/05/07 07:28:06;;;;;;;5.97;1.65;;;;;;;;;;5107319;28;20070;-71
2021/05/07 07:30:33;;;;;;;7.75;3.25;;;;;;;;;;5107504;28;20020;-71
2021/05/07 07:33:00;;;;;;;3.60;1.83;;;;;;;;;;5105869;28;20667;-70
2021/05/07 07:35:26;;;;;;;8.82;2.25;;;;;;;;;;5105513;28;20031;-70
2021/05/07 07:37:52;;;;;;;7.90;1.80;;;;;;;;;;5106880;28;20103;-70
2021/05/07 07:40:18;;;;;;;4.97;1.92;;;;;;;;;;5106771;28;20072;-70
2021/05/07 07:43:11;;;;;;;4.93;2.00;;;;;;;;;;5106735;27;20472;-71
2021/05/07 07:45:37;;;;;;;4.63;2.00;;;;;;;;;;5107537;28;20046;-71
2021/05/07 07:48:04;;;;;;;2.30;1.48;;;;;;;;;;5107198;28;20024;-70
2021/05/07 07:50:30;;;;;;;7.03;1.83;;;;;;;;;;5107603;28;20036;-70
2021/05/07 07:52:56;;;;;;;6.13;1.88;;;;;;;;;;5109521;28;20024;-71
2021/05/07 07:55:23;;;;;;;7.53;2.35;;;;;;;;;;5108617;28;20062;-69
2021/05/07 07:57:49;;;;;;;5.35;1.88;;;;;;;;;;5109876;28;20016;-71
2021/05/07 08:00:16;;;;;;;3.60;1.90;;;;;;;;;;5103310;28;20482;-71
2021/05/07 08:02:44;;;;;;;5.43;2.22;;;;;;;;;;5107876;28;20127;-69
2021/05/07 08:05:50;;;;;;;6.40;3.15;;;;;;;;;;5099460;27;20428;-68
2021/05/07 08:10:23;;;;;;;6.20;2.13;;;;;;;;;;5108395;27;20392;-70
2021/05/07 08:13:53;;;;;;;9.43;3.53;;;;;;;;;;5067654;28;20384;-71
2021/05/07 08:18:20;;;;;;;6.05;2.15;;;;;;;;;;5107236;27;20795;-69
2021/05/07 08:20:49;;;;;;;2.95;1.63;;;;;;;;;;5092675;28;20058;-71
2021/05/07 08:23:15;;;;;;;6.32;1.98;;;;;;;;;;5098648;28;20021;-72
2021/05/07 08:27:49;;;;;;;6.00;1.90;;;;;;;;;;5106467;27;1015017;-70
2021/05/07 08:31:30;;;;;;;3.40;1.42;;;;;;;;;;5088106;27;20411;-71
2021/05/07 08:33:57;;;;;;;11.90;3.03;;;;;;;;;;5079558;28;20654;-72
2021/05/07 08:36:23;;;;;;;5.55;2.38;;;;;;;;;;5085283;28;20028;-71
2021/05/07 08:38:51;;;;;;;5.85;2.00;;;;;;;;;;5085330;28;20028;-71
2021/05/07 08:41:17;;;;;;;6.40;2.25;;;;;;;;;;5083721;28;20036;-71
2021/05/07 08:43:44;;;;;;;7.57;2.28;;;;;;;;;;5087110;28;20069;-71
2021/05/07 08:46:10;;;;;;;6.57;2.13;;;;;;;;;;5087600;28;20499;-72
2021/05/07 08:48:40;;;;;;;3.20;1.50;;;;;;;;;;5085188;28;20082;-72
2021/05/07 08:51:54;;;;;;;3.10;1.83;;;;;;;;;;5089381;27;20326;-74
2021/05/07 08:54:21;;;;;;;3.22;1.35;;;;;;;;;;5089225;28;20066;-73
2021/05/07 08:57:14;;;;;;;2.33;1.33;;;;;;;;;;5171308;27;20671;-73
2021/05/07 08:59:40;;;;;;;3.38;1.45;;;;;;;;;;5150263;27;20360;-72
2021/05/07 09:02:06;;;;;;;12.35;1.90;;;;;;;;;;5142520;27;20072;-71
2021/05/07 09:04:32;;;;;;;5.15;2.03;;;;;;;;;;5147319;27;20126;-72
2021/05/07 09:08:38;;;;;;;6.07;1.70;;;;;;;;;;5067960;28;20428;-72
2021/05/07 09:11:04;;;;;;;7.40;1.80;;;;;;;;;;5068016;28;20020;-71
2021/05/07 09:15:41;;;;;;;2.47;1.38;;;;;;;;;;5068257;28;20725;-74
2021/05/07 09:19:47;;;;;;;6.57;2.65;;;;;;;;;;5168774;27;20373;-72
2021/05/07 09:22:26;;;;;;;4.72;2.15;;;;;;;;;;5170501;27;20030;-72
2021/05/07 09:25:02;;;;;;;5.22;2.00;;;;;;;;;;5164762;27;20071;-71
2021/05/07 09:27:29;;;;;;;2.92;1.33;;;;;;;;;;5155530;27;20026;-70
2021/05/07 09:29:55;;;;;;;4.07;1.48;;;;;;;;;;5170094;27;20034;-70
2021/05/07 09:32:29;;;;;;;4.97;1.30;;;;;;;;;;5151140;27;20022;-72
2021/05/07 09:35:05;;;;;;;3.22;1.13;;;;;;;;;;5167479;27;20026;-74
2021/05/07 09:37:32;;;;;;;5.88;1.70;;;;;;;;;;5170528;27;20019;-75
2021/05/07 09:40:08;;;;;;;4.43;1.50;;;;;;;;;;5145301;27;20035;-72
2021/05/07 09:42:35;;;;;;;4.93;1.80;;;;;;;;;;5164250;27;20025;-70
2021/05/07 09:45:03;;;;;;;4.88;1.40;;;;;;;;;;5168412;27;20022;-70
2021/05/07 09:47:34;;;;;;;7.32;1.70;;;;;;;;;;5160464;27;20011;-73
2021/05/07 09:50:04;;;;;;;7.85;2.17;;;;;;;;;;5155069;27;20423;-74
2021/05/07 09:52:30;;;;;;;4.03;1.75;;;;;;;;;;5164164;27;20022;-73
2021/05/07 09:54:56;;;;;;;4.70;1.95;;;;;;;;;;5168698;27;20127;-73
2021/05/07 09:57:23;;;;;;;3.72;1.88;;;;;;;;;;5169622;27;20665;-78
2021/05/07 09:59:50;;;;;;;8.23;1.42;;;;;;;;;;5165229;27;20035;-70
2021/05/07 10:03:00;;;;;;;3.08;1.30;;;;;;;;;;5110671;27;20460;-73
2021/05/07 10:05:27;;;;;;;4.53;1.40;;;;;;;;;;5125072;28;20089;-77
2021/05/07 10:07:54;;;;;;;3.50;1.50;;;;;;;;;;5106996;28;20024;-76
2021/05/07 10:10:25;;;;;;;5.47;1.95;;;;;;;;;;5108297;28;20057;-77
2021/05/07 10:12:53;;;;;;;3.63;1.50;;;;;;;;;;5104736;28;20020;-78
2021/05/07 10:15:26;;;;;;;3.95;1.75;;;;;;;;;;5107829;28;20055;-78
2021/05/07 10:17:52;;;;;;;5.22;1.73;;;;;;;;;;5106728;28;20118;-79
2021/05/07 10:20:42;;;;;;;4.05;1.40;;;;;;;;;;5107358;28;20394;-83
2021/05/07 10:23:19;;;;;;;3.00;1.52;;;;;;;;;;5096905;28;20058;-77
2021/05/07 10:25:55;;;;;;;6.00;1.98;;;;;;;;;;5109306;28;20397;-76
2021/05/07 10:28:21;;;;;;;4.50;1.70;;;;;;;;;;5106760;28;20020;-77
2021/05/07 10:30:47;;;;;;;5.65;1.35;;;;;;;;;;5109463;28;20480;-77
2021/05/07 10:33:17;;;;;;;3.60;1.20;;;;;;;;;;5109593;28;20031;-79
2021/05/07 10:35:47;;;;;;;3.58;1.30;;;;;;;;;;5110094;28;20541;-79
2021/05/07 10:38:14;;;;;;;4.93;1.45;;;;;;;;;;5104468;28;20115;-80
2021/05/07 10:40:41;;;;;;;2.67;1.33;;;;;;;;;;5106820;28;20027;-79
2021/05/07 10:43:07;;;;;;;5.85;1.40;;;;;;;;;;5111995;28;20051;-80
2021/05/07 10:45:44;;;;;;;3.60;1.77;;;;;;;;;;5108570;28;20047;-76
2021/05/07 10:48:17;;;;;;;3.70;1.65;;;;;;;;;;5108455;28;20387;-77
2021/05/07 10:50:44;;;;;;;3.90;1.42;;;;;;;;;;5104728;28;20020;-79
2021/05/07 10:53:11;;;;;;;2.65;1.33;;;;;;;;;;5108295;28;20030;-79
2021/05/07 10:55:37;;;;;;;3.00;1.48;;;;;;;;;;5107644;28;20422;-78
2021/05/07 10:58:06;;;;;;;9.85;1.45;;;;;;;;;;5109081;28;20020;-76
2021/05/07 11:00:34;;;;;;;4.32;1.30;;;;;;;;;;5106859;28;20024;-81
2021/05/07 11:03:00;;;;;;;4.68;1.35;;;;;;;;;;5105483;28;20027;-78
2021/05/07 11:05:35;;;;;;;5.28;1.75;;;;;;;;;;5107330;28;20027;-74
2021/05/07 11:08:02;;;;;;;6.68;1.50;;;;;;;;;;5104596;28;20028;-74
2021/05/07 11:10:28;;;;;;;3.95;1.80;;;;;;;;;;5104345;28;20020;-85
2021/05/07 11:12:54;;;;;;;3.85;1.50;;;;;;;;;;5105742;28;20020;-85
2021/05/07 11:15:21;;;;;;;4.93;2.17;;;;;;;;;;5098210;28;20353;-84
2021/05/07 11:17:57;;;;;;;3.80;1.77;;;;;;;;;;5099692;28;20024;-85
2021/05/07 11:20:30;;;;;;;4.68;1.80;;;;;;;;;;5095652;28;20051;-84
2021/05/07 11:22:57;;;;;;;3.13;1.13;;;;;;;;;;5097230;28;20040;-83
2021/05/07 11:25:24;;;;;;;3.65;1.08;;;;;;;;;;5098105;28;20032;-85
2021/05/07 11:27:50;;;;;;;3.70;1.00;;;;;;;;;;5096365;28;20069;-79
2021/05/07 11:30:17;;;;;;;1.27;0.80;;;;;;;;;;5094635;28;20020;-80
2021/05/07 11:32:43;;;;;;;8.27;1.30;;;;;;;;;;5094742;28;20035;-75
2021/05/07 11:35:11;;;;;;;3.70;1.35;;;;;;;;;;5095012;28;20024;-76
2021/05/07 11:38:29;;;;;;;4.60;1.20;;;;;;;;;;5067950;28;20391;-75
2021/05/07 11:40:55;;;;;;;7.80;1.50;;;;;;;;;;5068117;28;20029;-76
2021/05/07 11:43:21;;;;;;;3.65;1.30;;;;;;;;;;5069725;28;20028;-76
2021/05/07 11:45:47;;;;;;;3.97;1.17;;;;;;;;;;5069704;28;20473;-76
2021/05/07 11:48:14;;;;;;;2.60;1.10;;;;;;;;;;5069551;28;20025;-76
2021/05/07 11:50:41;;;;;;;2.30;0.82;;;;;;;;;;5068251;28;20141;-75
2021/05/07 11:53:23;;;;;;;8.30;1.35;;;;;;;;;;5068238;28;20385;-75
2021/05/07 11:55:49;;;;;;;1.83;0.98;;;;;;;;;;5067642;28;20028;-76
2021/05/07 11:58:16;;;;;;;2.05;1.05;;;;;;;;;;5068465;28;20043;-75
2021/05/07 12:00:44;;;;;;;5.07;1.35;;;;;;;;;;5069352;28;20090;-75
2021/05/07 12:03:14;;;;;;;12.23;1.65;;;;;;;;;;5069422;28;20470;-75
2021/05/07 12:05:42;;;;;;;8.23;1.20;;;;;;;;;;5069715;28;20016;-75
2021/05/07 12:08:09;;;;;;;3.03;1.10;;;;;;;;;;5068832;28;20104;-75
2021/05/07 12:10:35;;;;;;;1.92;0.93;;;;;;;;;;5069244;28;20028;-76
2021/05/07 12:13:02;;;;;;;3.95;1.10;;;;;;;;;;5069371;28;20029;-75
2021/05/07 12:15:33;;;;;;;6.43;1.55;;;;;;;;;;5068865;28;20029;-75
2021/05/07 12:18:00;;;;;;;2.95;1.15;;;;;;;;;;5069033;28;20417;-75
2021/05/07 12:20:28;;;;;;;3.60;0.90;;;;;;;;;;5067823;28;20017;-75
2021/05/07 12:22:55;;;;;;;2.85;1.00;;;;;;;;;;5068663;28;20070;-76
2021/05/07 12:25:22;;;;;;;4.03;1.35;;;;;;;;;;5069091;28;20439;-76
2021/05/07 12:27:49;;;;;;;4.65;1.98;;;;;;;;;;5069027;28;20028;-77
2021/05/07 12:30:19;;;;;;;2.38;1.00;;;;;;;;;;5070301;28;20029;-76
2021/05/07 12:32:55;;;;;;;9.05;2.05;;;;;;;;;;5067701;28;20104;-76
2021/05/07 12:35:21;;;;;;;9.10;1.60;;;;;;;;;;5068814;28;20025;-76
2021/05/07 12:37:47;;;;;;;3.70;1.15;;;;;;;;;;5066922;28;20493;-76
2021/05/07 12:40:14;;;;;;;5.82;1.40;;;;;;;;;;5068720;28;20043;-76
2021/05/07 12:42:40;;;;;;;2.80;1.00;;;;;;;;;;5068373;28;20397;-76
2021/05/07 12:45:07;;;;;;;1.98;1.00;;;;;;;;;;5068773;28;20048;-76
2021/05/07 12:47:33;;;;;;;2.65;0.88;;;;;;;;;;5068196;28;20057;-76
2021/05/07 12:49:59;;;;;;;5.85;1.02;;;;;;;;;;5053184;28;20091;-76
2021/05/07 12:52:25;;;;;;;1.85;1.02;;;;;;;;;;5055265;28;20456;-76
2021/05/07 12:54:51;;;;;;;6.32;1.27;;;;;;;;;;5054037;28;20484;-77
2021/05/07 12:57:18;;;;;;;2.67;1.02;;;;;;;;;;5054694;28;20033;-77
2021/05/07 12:59:44;;;;;;;4.70;1.33;;;;;;;;;;5054085;28;20021;-77
2021/05/07 13:02:10;;;;;;;4.28;1.35;;;;;;;;;;5055529;28;20025;-76
2021/05/07 13:04:36;;;;;;;4.20;1.55;;;;;;;;;;5055353;28;20017;-77
2021/05/07 13:07:02;;;;;;;6.72;1.67;;;;;;;;;;5055034;28;20021;-76
2021/05/07 13:09:29;;;;;;;2.97;1.58;;;;;;;;;;5053675;28;20033;-77
2021/05/07 13:11:55;;;;;;;2.72;0.98;;;;;;;;;;5054757;28;20018;-76
2021/05/07 13:14:21;;;;;;;4.15;1.25;;;;;;;;;;5054886;28;20382;-75
2021/05/07 13:16:47;;;;;;;3.38;1.10;;;;;;;;;;5054703;28;20071;-76
2021/05/07 13:19:13;;;;;;;3.30;1.10;;;;;;;;;;5054383;28;20481;-75
2021/05/07 13:21:40;;;;;;;2.10;1.00;;;;;;;;;;5053475;28;20383;-75
2021/05/07 13:24:08;;;;;;;2.28;0.88;;;;;;;;;;5054847;28;20020;-76
2021/05/07 13:26:34;;;;;;;1.70;1.00;;;;;;;;;;5054245;28;20028;-75
2021/05/07 13:29:00;;;;;;;3.97;1.08;;;;;;;;;;5054471;28;20029;-74
2021/05/07 13:31:27;;;;;;;2.50;1.17;;;;;;;;;;5053297;28;20024;-76
2021/05/07 13:33:53;;;;;;;6.70;1.30;;;;;;;;;;5054102;28;20052;-76
2021/05/07 13:36:20;;;;;;;2.15;0.88;;;;;;;;;;5052803;28;20107;-74
2021/05/07 13:38:46;;;;;;;3.45;0.90;;;;;;;;;;5053136;28;20025;-75
2021/05/07 13:41:12;;;;;;;5.10;1.25;;;;;;;;;;5053020;28;20108;-75
2021/05/07 13:43:39;;;;;;;2.55;1.00;;;;;;;;;;5054544;28;20032;-75
2021/05/07 13:46:05;;;;;;;4.13;1.10;;;;;;;;;;5054030;28;20488;-75
2021/05/07 13:48:33;;;;;;;5.80;1.15;;;;;;;;;;5054166;28;20461;-75
2021/05/07 13:50:59;;;;;;;3.08;1.08;;;;;;;;;;5054242;28;20025;-74
2021/05/07 13:53:25;;;;;;;6.85;1.40;;;;;;;;;;5053869;28;20028;-76
2021/05/07 13:55:51;;;;;;;6.03;1.20;;;;;;;;;;5054320;28;20031;-75
2021/05/07 13:58:17;;;;;;;5.72;1.27;;;;;;;;;;5053929;28;20036;-75
2021/05/07 14:00:44;;;;;;;2.92;1.25;;;;;;;;;;5052612;28;20045;-76
2021/05/07 14:03:10;;;;;;;3.75;1.40;;;;;;;;;;5053861;28;20103;-75
2021/05/07 14:05:37;;;;;;;6.18;1.42;;;;;;;;;;5054134;28;20562;-75
2021/05/07 14:08:03;;;;;;;4.13;1.40;;;;;;;;;;5053464;28;20086;-75
2021/05/07 14:10:30;;;;;;;5.45;1.73;;;;;;;;;;5053743;28;20064;-75
2021/05/07 14:12:56;;;;;;;3.50;1.40;;;;;;;;;;5053780;28;20025;-75
2021/05/07 14:15:24;;;;;;;5.28;1.55;;;;;;;;;;5053272;28;20362;-75
2021/05/07 14:17:50;;;;;;;4.32;1.50;;;;;;;;;;5053571;28;20029;-74
2021/05/07 14:20:16;;;;;;;5.80;1.63;;;;;;;;;;5053498;28;20032;-75
2021/05/07 14:22:43;;;;;;;3.78;1.00;;;;;;;;;;5053161;28;20489;-73
2021/05/07 14:25:09;;;;;;;3.47;1.20;;;;;;;;;;5053570;28;20029;-73
2021/05/07 14:27:35;;;;;;;6.07;1.73;;;;;;;;;;5053534;28;20028;-75
2021/05/07 14:30:02;;;;;;;3.50;1.00;;;;;;;;;;5053359;28;20070;-75
2021/05/07 14:32:28;;;;;;;2.97;1.00;;;;;;;;;;5052061;28;20029;-74
2021/05/07 14:34:57;;;;;;;5.00;1.25;;;;;;;;;;5051959;28;20052;-74
2021/05/07 14:37:23;;;;;;;5.63;1.40;;;;;;;;;;5052629;28;20041;-75
2021/05/07 14:39:49;;;;;;;5.13;1.05;;;;;;;;;;5053265;28;20543;-75
2021/05/07 14:42:16;;;;;;;2.88;1.00;;;;;;;;;;5052731;28;20108;-75
2021/05/07 14:44:42;;;;;;;4.07;1.30;;;;;;;;;;5053297;28;20024;-75
2021/05/07 14:47:13;;;;;;;5.03;1.33;;;;;;;;;;5053200;28;20108;-75
2021/05/07 14:49:40;;;;;;;2.70;0.98;;;;;;;;;;5051597;28;20070;-74
2021/05/07 14:52:06;;;;;;;6.05;1.33;;;;;;;;;;5052976;28;20020;-74
2021/05/07 14:54:33;;;;;;;3.15;0.90;;;;;;;;;;5053002;28;20021;-74
2021/05/07 14:56:59;;;;;;;2.85;1.23;;;;;;;;;;5052571;28;20033;-77
2021/05/07 14:59:25;;;;;;;5.70;1.20;;;;;;;;;;5052989;28;20061;-75
2021/05/07 15:01:51;;;;;;;3.08;1.00;;;;;;;;;;5052901;28;20021;-75
2021/05/07 15:04:17;;;;;;;2.50;1.10;;;;;;;;;;5052451;28;20024;-74
2021/05/07 15:06:44;;;;;;;3.50;1.00;;;;;;;;;;5052878;28;20028;-74
2021/05/07 15:09:10;;;;;;;3.35;1.25;;;;;;;;;;5051553;28;20021;-74
2021/05/07 15:11:36;;;;;;;5.47;1.10;;;;;;;;;;5052061;28;20021;-75
2021/05/07 15:14:02;;;;;;;3.75;1.15;;;;;;;;;;5052728;28;20393;-74
2021/05/07 15:16:29;;;;;;;2.88;1.15;;;;;;;;;;5052489;28;20032;-75
2021/05/07 15:18:57;;;;;;;4.13;1.10;;;;;;;;;;5052244;28;20040;-75
2021/05/07 15:21:24;;;;;;;8.63;1.33;;;;;;;;;;5052674;28;20056;-75
2021/05/07 15:23:50;;;;;;;2.53;1.20;;;;;;;;;;5052459;28;20060;-75
2021/05/07 15:26:17;;;;;;;2.60;1.15;;;;;;;;;;5052418;28;20027;-75
2021/05/07 15:28:44;;;;;;;3.08;1.30;;;;;;;;;;5052589;28;20026;-76
2021/05/07 15:31:10;;;;;;;5.18;1.27;;;;;;;;;;5052461;28;20092;-75
2021/05/07 15:33:36;;;;;;;3.28;1.23;;;;;;;;;;5052210;28;20029;-76
2021/05/07 15:36:03;;;;;;;2.08;1.25;;;;;;;;;;5050963;28;20025;-75
2021/05/07 15:38:29;;;;;;;3.25;1.05;;;;;;;;;;5051907;28;20029;-75
2021/05/07 15:40:55;;;;;;;3.90;1.02;;;;;;;;;;5052462;28;20025;-75
2021/05/07 15:43:21;;;;;;;2.40;1.17;;;;;;;;;;5052297;28;20477;-75
2021/05/07 15:45:48;;;;;;;2.75;1.27;;;;;;;;;;5052055;28;20106;-75
2021/05/07 15:48:14;;;;;;;4.82;1.50;;;;;;;;;;5052484;28;20032;-75
2021/05/07 15:50:40;;;;;;;4.95;1.13;;;;;;;;;;5052281;28;20523;-75
2021/05/07 15:53:06;;;;;;;3.22;1.00;;;;;;;;;;5052055;28;20497;-75
2021/05/07 15:55:33;;;;;;;6.25;1.65;;;;;;;;;;5052193;28;20359;-75
2021/05/07 15:57:59;;;;;;;3.63;1.23;;;;;;;;;;5050807;28;20044;-76
2021/05/07 16:00:25;;;;;;;1.73;1.00;;;;;;;;;;5051653;28;20373;-75
2021/05/07 16:02:52;;;;;;;2.28;1.13;;;;;;;;;;5050868;28;20393;-75
2021/05/07 16:05:18;;;;;;;3.55;1.00;;;;;;;;;;5052226;28;20488;-75
2021/05/07 16:07:44;;;;;;;1.80;0.90;;;;;;;;;;5050595;28;20056;-75
2021/05/07 16:10:10;;;;;;;7.13;1.45;;;;;;;;;;5052057;28;20045;-74
2021/05/07 16:12:38;;;;;;;4.20;1.80;;;;;;;;;;5051907;28;20025;-74
2021/05/07 16:15:05;;;;;;;4.13;1.50;;;;;;;;;;5051776;28;20044;-74
2021/05/07 16:17:31;;;;;;;4.10;1.27;;;;;;;;;;5051995;28;20037;-74
2021/05/07 16:19:57;;;;;;;3.35;0.98;;;;;;;;;;5051938;28;20111;-74
2021/05/07 16:22:23;;;;;;;2.67;1.40;;;;;;;;;;5051515;28;20025;-74
2021/05/07 16:24:50;;;;;;;9.02;1.70;;;;;;;;;;5054989;28;20120;-76
2021/05/07 16:27:16;;;;;;;5.18;1.65;;;;;;;;;;5055912;28;20107;-75
2021/05/07 16:29:43;;;;;;;8.30;1.73;;;;;;;;;;5055413;28;20021;-75
2021/05/07 16:32:09;;;;;;;16.30;2.17;;;;;;;;;;5055686;28;20370;-75